Time;durP1;ratioP1;P1;durP2;ratioP2;P2;SDS_P1;SDS_P2;PMS_P1;PMS_P2;Temp;Humidity;BMP_temperature;BMP_pressure;BME280_temperature;BME280_humidity;BME280_pressure;Samples;Min_cycle;Max_cycle;Signal;HPM_P1;HPM_P2
2021/06/18 00:01:06;;;;;;;10.65;8.30;;;;;;;17.43;90.59;95027.53;1613498;88;21000;-56
2021/06/18 00:03:33;;;;;;;11.60;8.58;;;;;;;17.44;90.08;95027.03;1611318;87;20992;-56
2021/06/18 00:06:01;;;;;;;13.15;8.95;;;;;;;17.44;89.77;95023.50;1632557;87;20996;-56
2021/06/18 00:08:27;;;;;;;13.90;8.25;;;;;;;17.36;89.73;95028.69;1619509;87;21029;-56
2021/06/18 00:10:54;;;;;;;12.58;7.70;;;;;;;17.33;89.84;95027.47;1605939;87;21318;-55
2021/06/18 00:13:21;;;;;;;16.30;7.90;;;;;;;17.29;89.72;95024.13;1607910;88;21136;-55
2021/06/18 00:15:47;;;;;;;11.75;8.45;;;;;;;17.26;89.79;95022.31;1607213;88;21118;-54
2021/06/18 00:18:16;;;;;;;10.18;7.62;;;;;;;17.25;89.94;95022.17;1608122;88;21127;-55
2021/06/18 00:20:44;;;;;;;10.80;7.65;;;;;;;17.22;89.76;95021.73;1619353;87;21078;-55
2021/06/18 00:23:11;;;;;;;11.93;7.90;;;;;;;17.20;89.69;95029.79;1610574;87;21182;-56
2021/06/18 00:25:37;;;;;;;11.50;7.85;;;;;;;17.14;89.53;95022.00;1625003;87;20944;-56
2021/06/18 00:28:05;;;;;;;13.30;8.10;;;;;;;17.11;89.83;95016.77;1618351;88;21115;-55
2021/06/18 00:30:31;;;;;;;9.98;7.17;;;;;;;17.09;89.85;95018.52;1602868;87;21019;-56
2021/06/18 00:32:58;;;;;;;12.82;8.25;;;;;;;17.04;90.08;95022.73;1617334;88;21152;-56
2021/06/18 00:35:26;;;;;;;13.45;8.23;;;;;;;16.99;90.33;95023.42;1610660;88;21168;-56
2021/06/18 00:37:52;;;;;;;11.68;7.58;;;;;;;16.95;90.38;95029.03;1617442;87;21062;-56
2021/06/18 00:40:19;;;;;;;12.88;7.65;;;;;;;16.91;90.67;95020.88;1616508;87;21604;-56
2021/06/18 00:42:46;;;;;;;10.13;7.50;;;;;;;16.90;90.78;95027.69;1610761;88;21564;-54
2021/06/18 00:45:14;;;;;;;9.65;6.97;;;;;;;16.90;90.62;95021.38;1615452;87;21023;-56
2021/06/18 00:47:47;;;;;;;8.85;6.62;;;;;;;16.92;90.64;95024.44;1615703;87;21189;-55
2021/06/18 00:50:15;;;;;;;11.75;6.83;;;;;;;16.95;90.31;95024.22;1625898;87;21109;-55
2021/06/18 00:52:42;;;;;;;9.75;6.65;;;;;;;16.96;90.14;95024.39;1612483;87;21600;-55
2021/06/18 00:55:11;;;;;;;7.05;6.28;;;;;;;16.97;89.98;95015.41;1618414;86;21028;-55
2021/06/18 00:57:37;;;;;;;9.10;6.83;;;;;;;16.98;89.97;95012.77;1622420;87;21095;-56
2021/06/18 01:00:07;;;;;;;10.50;6.60;;;;;;;17.00;90.18;95011.05;1629697;88;21250;-55
2021/06/18 01:02:33;;;;;;;8.38;6.53;;;;;;;17.02;89.79;95018.28;1619656;87;21076;-55
2021/06/18 01:05:00;;;;;;;11.70;7.08;;;;;;;16.95;89.78;95010.32;1614717;88;21611;-56
2021/06/18 01:07:32;;;;;;;9.15;7.30;;;;;;;16.93;90.08;95011.43;1613386;87;21043;-55
2021/06/18 01:10:17;;;;;;;8.25;7.00;;;;;;;16.92;89.85;95011.28;1607603;87;21044;-54
2021/06/18 01:13:20;;;;;;;9.28;6.03;;;;;;;16.89;89.61;95008.73;1614812;87;21159;-54
2021/06/18 01:16:28;;;;;;;7.83;5.30;;;;;;;16.85;89.59;95005.35;1591878;88;21729;-54
2021/06/18 01:19:06;;;;;;;8.03;6.45;;;;;;;16.85;90.12;95012.30;1612483;87;21082;-54
2021/06/18 01:21:35;;;;;;;10.78;6.90;;;;;;;16.88;89.68;95016.28;1617478;87;20983;-55
2021/06/18 01:24:20;;;;;;;10.45;6.33;;;;;;;16.84;89.41;95012.16;1609073;87;21033;-55
2021/06/18 01:27:13;;;;;;;8.00;6.60;;;;;;;16.79;89.35;95003.12;1613461;87;21175;-55
2021/06/18 01:29:55;;;;;;;10.70;6.20;;;;;;;16.74;89.13;95006.58;1611117;87;20971;-55
2021/06/18 01:32:38;;;;;;;9.73;6.37;;;;;;;16.66;89.32;95006.81;1621989;87;21232;-55
2021/06/18 01:35:08;;;;;;;11.63;7.37;;;;;;;16.59;89.24;95011.38;1606174;87;21579;-55
2021/06/18 01:37:34;;;;;;;7.47;6.42;;;;;;;16.53;89.44;95016.08;1609553;87;21276;-55
2021/06/18 01:40:09;;;;;;;9.35;6.50;;;;;;;16.50;89.62;95008.67;1616407;87;21162;-55
2021/06/18 01:42:39;;;;;;;17.75;5.90;;;;;;;16.46;89.77;95008.88;1615142;87;21092;-55
2021/06/18 01:45:12;;;;;;;8.65;6.53;;;;;;;16.43;89.88;95004.91;1615943;88;21498;-55
2021/06/18 01:47:39;;;;;;;9.63;7.62;;;;;;;16.38;90.01;94994.47;1609604;88;21464;-56
2021/06/18 01:50:08;;;;;;;11.40;6.78;;;;;;;16.32;90.04;94994.94;1618794;87;21199;-55
2021/06/18 01:52:36;;;;;;;15.10;12.28;;;;;;;16.28;90.32;94997.92;1611616;87;21769;-55
2021/06/18 01:55:04;;;;;;;10.82;7.70;;;;;;;16.25;90.62;94988.39;1580609;88;21625;-55
2021/06/18 01:57:30;;;;;;;9.25;7.60;;;;;;;16.23;90.83;94997.04;1609765;88;21567;-56
2021/06/18 01:59:57;;;;;;;13.45;7.95;;;;;;;16.21;91.22;94999.53;1622878;87;21016;-55
2021/06/18 02:02:24;;;;;;;8.30;6.45;;;;;;;16.25;91.69;95003.66;1589365;87;21051;-56
2021/06/18 02:04:51;;;;;;;8.73;5.90;;;;;;;16.27;91.24;95006.72;1613196;87;21149;-55
2021/06/18 02:07:19;;;;;;;10.58;5.85;;;;;;;16.27;90.89;95010.89;1591658;88;20993;-55
2021/06/18 02:09:46;;;;;;;8.18;6.00;;;;;;;16.24;90.79;95011.84;1611733;87;21121;-53
2021/06/18 02:12:15;;;;;;;11.50;7.28;;;;;;;16.22;90.80;95006.00;1620584;87;21086;-54
2021/06/18 02:14:43;;;;;;;12.35;7.53;;;;;;;16.19;90.86;95006.97;1631094;87;21555;-55
2021/06/18 02:17:11;;;;;;;10.30;7.58;;;;;;;16.14;91.02;95005.47;1617410;88;21845;-55
2021/06/18 02:19:39;;;;;;;12.75;7.80;;;;;;;16.11;91.06;95009.20;1621285;87;21617;-55
2021/06/18 02:22:09;;;;;;;9.68;7.20;;;;;;;16.04;90.92;95011.72;1622146;87;21550;-55
2021/06/18 02:24:35;;;;;;;11.00;7.87;;;;;;;15.99;91.30;95010.22;1621796;87;21018;-55
2021/06/18 02:27:04;;;;;;;8.18;6.87;;;;;;;16.01;91.47;95010.51;1597057;87;20970;-55
2021/06/18 02:29:30;;;;;;;10.35;6.33;;;;;;;16.02;91.54;95012.82;1616092;87;21092;-55
2021/06/18 02:32:00;;;;;;;6.92;6.12;;;;;;;16.01;91.30;95014.06;1616700;88;21214;-55
2021/06/18 02:34:27;;;;;;;10.32;7.50;;;;;;;16.00;91.17;95025.02;1617588;87;21020;-55
2021/06/18 02:36:53;;;;;;;9.13;6.35;;;;;;;16.00;91.09;95018.69;1617195;87;21623;-55
2021/06/18 02:39:20;;;;;;;8.15;6.12;;;;;;;16.01;90.89;95029.33;1625084;87;21538;-55
2021/06/18 02:41:46;;;;;;;10.72;6.10;;;;;;;15.99;90.72;95027.66;1618304;87;21374;-55
2021/06/18 02:44:13;;;;;;;11.25;5.60;;;;;;;16.03;90.94;95021.90;1623412;87;21040;-55
2021/06/18 02:47:15;;;;;;;9.60;5.92;;;;;;;16.05;90.57;95022.97;1616612;87;21088;-55
2021/06/18 02:49:58;;;;;;;9.73;6.87;;;;;;;16.05;90.63;95024.96;1609427;87;20967;-55
2021/06/18 02:52:47;;;;;;;8.33;6.47;;;;;;;16.07;91.13;95024.64;1613451;87;21633;-56
2021/06/18 02:55:23;;;;;;;10.70;6.30;;;;;;;16.10;91.02;95022.30;1612605;88;21233;-55
2021/06/18 02:58:12;;;;;;;6.90;5.92;;;;;;;16.13;90.98;95015.04;1625414;87;21681;-55
2021/06/18 03:00:40;;;;;;;9.05;6.00;;;;;;;16.16;90.69;95019.03;1617657;87;21175;-55
2021/06/18 03:03:07;;;;;;;10.55;6.00;;;;;;;16.21;90.41;95021.74;1618342;87;21189;-54
2021/06/18 03:05:34;;;;;;;16.10;6.08;;;;;;;16.22;89.96;95024.66;1611697;87;21115;-56
2021/06/18 03:08:05;;;;;;;7.03;6.17;;;;;;;16.18;89.84;95017.92;1606645;87;21063;-56
2021/06/18 03:10:40;;;;;;;8.63;5.20;;;;;;;16.15;89.83;95021.66;1621912;88;21045;-55
2021/06/18 03:13:17;;;;;;;11.15;6.05;;;;;;;16.12;89.66;95019.81;1612601;88;21654;-55
2021/06/18 03:15:45;;;;;;;7.85;6.53;;;;;;;16.09;89.80;95022.80;1581312;88;21071;-55
2021/06/18 03:18:14;;;;;;;10.20;6.50;;;;;;;16.08;90.24;95012.94;1623378;87;21007;-55
2021/06/18 03:20:41;;;;;;;10.48;6.20;;;;;;;16.16;90.56;95012.70;1614344;87;22332;-54
2021/06/18 03:23:11;;;;;;;12.93;6.37;;;;;;;16.23;90.12;95014.48;1622970;87;21114;-56
2021/06/18 03:25:38;;;;;;;12.18;6.15;;;;;;;16.23;89.85;95016.48;1619317;87;22306;-55
2021/06/18 03:28:05;;;;;;;9.20;6.03;;;;;;;16.19;89.71;95022.23;1591454;88;21088;-55
2021/06/18 03:30:32;;;;;;;8.43;6.50;;;;;;;16.14;89.69;95013.19;1596726;88;21476;-55
2021/06/18 03:33:00;;;;;;;9.03;7.03;;;;;;;16.10;89.92;95011.20;1607524;87;22006;-55
2021/06/18 03:35:31;;;;;;;7.53;5.92;;;;;;;16.11;90.39;95014.75;1587734;88;21546;-53
2021/06/18 03:37:59;;;;;;;7.08;5.97;;;;;;;16.16;90.36;95005.15;1615626;87;21451;-53
2021/06/18 03:40:26;;;;;;;10.25;6.37;;;;;;;16.18;90.56;95010.98;1611463;87;21180;-53
2021/06/18 03:42:54;;;;;;;10.45;6.35;;;;;;;16.23;91.00;95010.92;1614352;87;21700;-52
2021/06/18 03:45:22;;;;;;;9.03;5.70;;;;;;;16.31;91.39;95004.52;1595849;88;22031;-54
2021/06/18 03:47:50;;;;;;;9.48;6.12;;;;;;;16.41;91.21;95006.78;1616293;87;20996;-53
2021/06/18 03:50:20;;;;;;;11.85;6.50;;;;;;;16.55;91.01;95002.47;1612208;87;21031;-50
2021/06/18 03:52:47;;;;;;;9.80;7.03;;;;;;;16.65;90.59;95012.22;1618798;87;21060;-50
2021/06/18 03:55:14;;;;;;;20.12;7.42;;;;;;;16.72;90.05;95011.86;1617260;87;21090;-53
2021/06/18 03:57:43;;;;;;;10.10;7.28;;;;;;;16.77;90.01;95014.70;1608681;87;22372;-52
2021/06/18 04:00:11;;;;;;;11.28;8.08;;;;;;;16.80;89.53;95019.93;1613105;87;21104;-52
2021/06/18 04:02:41;;;;;;;15.00;8.28;;;;;;;16.81;89.48;95009.73;1628775;87;21028;-53
2021/06/18 04:05:15;;;;;;;13.45;7.83;;;;;;;16.86;89.35;95017.39;1620124;87;20987;-53
2021/06/18 04:07:46;;;;;;;16.93;7.67;;;;;;;16.90;89.37;95011.64;1612770;87;21538;-53
2021/06/18 04:10:20;;;;;;;10.13;7.93;;;;;;;16.96;89.47;95008.32;1611495;88;21835;-54
2021/06/18 04:12:49;;;;;;;13.53;7.62;;;;;;;16.99;89.45;94999.80;1621756;88;22251;-53
2021/06/18 04:15:16;;;;;;;24.40;9.63;;;;;;;17.07;89.45;95000.16;1609296;87;21020;-53
2021/06/18 04:17:43;;;;;;;17.23;9.78;;;;;;;17.12;89.22;95010.59;1607768;87;21044;-54
2021/06/18 04:20:12;;;;;;;16.77;8.53;;;;;;;17.16;89.26;95008.37;1608954;87;20976;-53
2021/06/18 04:22:39;;;;;;;13.95;7.45;;;;;;;17.24;89.26;95008.13;1627324;87;21169;-53
2021/06/18 04:25:07;;;;;;;18.60;8.20;;;;;;;17.38;89.29;95010.11;1622841;87;21625;-53
2021/06/18 04:27:34;;;;;;;15.85;7.97;;;;;;;17.53;89.03;95011.61;1627270;87;21099;-52
2021/06/18 04:30:00;;;;;;;12.95;7.72;;;;;;;17.66;88.32;95011.27;1614866;87;21287;-52
2021/06/18 04:32:27;;;;;;;7.75;6.25;;;;;;;17.76;87.97;95018.22;1615243;88;21100;-52
2021/06/18 04:34:54;;;;;;;7.35;5.75;;;;;;;17.84;87.76;95012.39;1611046;87;21783;-53
2021/06/18 04:37:21;;;;;;;20.77;9.30;;;;;;;17.94;87.61;95016.55;1621146;88;20999;-53
2021/06/18 04:39:48;;;;;;;22.55;8.30;;;;;;;18.01;86.85;95011.97;1617241;88;21058;-53
2021/06/18 04:42:15;;;;;;;16.27;9.18;;;;;;;18.02;86.46;95011.46;1602157;88;21013;-53
2021/06/18 04:44:43;;;;;;;19.62;9.58;;;;;;;18.08;86.44;95008.75;1623233;88;21099;-52
2021/06/18 04:47:10;;;;;;;19.32;11.33;;;;;;;18.16;85.75;95014.05;1614636;87;21442;-53
2021/06/18 04:49:37;;;;;;;19.75;10.13;;;;;;;18.19;85.46;95010.41;1616467;87;21629;-54
2021/06/18 04:52:07;;;;;;;14.75;8.08;;;;;;;18.26;84.86;95005.05;1589192;88;21086;-53
2021/06/18 04:54:35;;;;;;;9.88;7.33;;;;;;;18.30;84.65;95010.55;1591972;88;21031;-54
2021/06/18 04:57:02;;;;;;;12.73;6.80;;;;;;;18.33;83.98;95008.81;1601085;87;21456;-53
2021/06/18 04:59:30;;;;;;;14.23;6.67;;;;;;;18.35;83.98;95011.25;1588838;88;21612;-54
2021/06/18 05:01:56;;;;;;;10.00;5.45;;;;;;;18.38;83.74;95010.27;1619873;87;21031;-54
2021/06/18 05:04:23;;;;;;;9.75;5.90;;;;;;;18.39;83.52;95009.01;1619374;87;21066;-54
2021/06/18 05:06:50;;;;;;;10.45;6.75;;;;;;;18.44;83.20;95006.15;1620575;87;21566;-54
2021/06/18 05:09:16;;;;;;;10.28;7.03;;;;;;;18.47;82.88;95005.16;1627988;87;21064;-57
2021/06/18 05:11:43;;;;;;;9.53;6.72;;;;;;;18.53;82.80;95009.53;1623508;87;21845;-55
2021/06/18 05:14:11;;;;;;;11.50;6.87;;;;;;;18.61;82.79;95003.65;1620017;88;20993;-52
2021/06/18 05:16:39;;;;;;;12.13;6.72;;;;;;;18.68;82.72;94996.22;1611169;88;21035;-54
2021/06/18 05:19:07;;;;;;;13.38;6.60;;;;;;;18.77;82.82;95003.03;1615378;88;21153;-54
2021/06/18 05:21:33;;;;;;;11.43;6.85;;;;;;;18.83;82.73;95002.45;1612667;87;21769;-54
2021/06/18 05:24:01;;;;;;;9.80;6.80;;;;;;;18.88;82.51;94998.18;1620017;87;21180;-54
2021/06/18 05:26:31;;;;;;;7.17;5.92;;;;;;;18.95;82.50;95001.91;1615803;87;21521;-59
2021/06/18 05:28:59;;;;;;;10.50;6.70;;;;;;;19.07;82.19;95007.09;1560501;89;21206;-58
2021/06/18 05:31:26;;;;;;;9.13;6.72;;;;;;;19.27;81.91;95004.23;1610553;87;21534;-55
2021/06/18 05:33:53;;;;;;;12.78;8.73;;;;;;;19.47;81.33;95005.50;1580546;89;21116;-54
2021/06/18 05:36:21;;;;;;;13.55;6.28;;;;;;;19.63;80.39;95002.66;1578573;88;21123;-54
2021/06/18 05:38:48;;;;;;;12.68;5.78;;;;;;;19.77;79.53;95000.33;1562535;90;21060;-54
2021/06/18 05:41:14;;;;;;;24.72;7.70;;;;;;;19.91;79.02;95000.78;1584142;88;21037;-54
2021/06/18 05:43:41;;;;;;;23.10;11.83;;;;;;;20.04;78.66;94994.89;1574578;89;21200;-55
2021/06/18 05:46:08;;;;;;;8.40;6.85;;;;;;;20.15;78.09;94988.70;1590637;89;21058;-55
2021/06/18 05:48:36;;;;;;;11.85;7.72;;;;;;;20.28;77.50;94988.23;1593088;88;21146;-53
2021/06/18 05:51:03;;;;;;;14.38;8.03;;;;;;;20.35;77.21;94998.94;1536746;90;21593;-55
2021/06/18 05:53:31;;;;;;;18.15;10.28;;;;;;;20.43;76.86;94999.34;1565845;89;21477;-54
2021/06/18 05:55:59;;;;;;;12.65;8.48;;;;;;;20.57;76.64;95000.38;1606060;87;21208;-54
2021/06/18 05:58:26;;;;;;;10.10;6.67;;;;;;;20.73;76.64;95001.05;1590426;88;21096;-56
2021/06/18 06:00:53;;;;;;;9.38;6.53;;;;;;;20.91;76.02;94996.39;1603546;87;21223;-57
2021/06/18 06:03:20;;;;;;;19.23;7.20;;;;;;;21.05;75.45;95000.95;1603384;87;21096;-57
2021/06/18 06:05:47;;;;;;;10.05;6.40;;;;;;;21.18;75.15;94994.20;1607831;86;21054;-56
2021/06/18 06:08:14;;;;;;;9.60;6.58;;;;;;;21.31;75.01;94993.06;1608748;86;21088;-58
2021/06/18 06:10:46;;;;;;;13.25;7.25;;;;;;;21.38;74.08;94984.91;1596695;86;21154;-57
2021/06/18 06:13:13;;;;;;;9.73;7.87;;;;;;;21.47;73.87;94983.88;1623016;86;21213;-59
2021/06/18 06:15:41;;;;;;;13.95;7.70;;;;;;;21.54;73.49;94988.33;1617432;86;20993;-58
2021/06/18 06:18:08;;;;;;;14.05;7.37;;;;;;;21.62;73.28;94980.94;1580702;88;21160;-57
2021/06/18 06:20:35;;;;;;;11.15;6.05;;;;;;;21.71;72.45;94978.50;1561603;90;21662;-57
2021/06/18 06:23:01;;;;;;;12.00;6.35;;;;;;;21.75;71.61;94982.56;1559983;89;21084;-57
2021/06/18 06:25:28;;;;;;;12.88;6.58;;;;;;;21.80;71.36;94983.83;1596443;86;21196;-59
2021/06/18 06:27:56;;;;;;;11.53;6.20;;;;;;;21.85;70.51;94985.19;1620983;86;39317;-62
2021/06/18 06:30:24;;;;;;;9.63;5.45;;;;;;;21.95;70.17;94987.07;1622071;86;21055;-61
2021/06/18 06:32:50;;;;;;;12.35;5.70;;;;;;;22.03;69.59;94986.67;1623716;86;21046;-62
2021/06/18 06:35:18;;;;;;;6.78;6.00;;;;;;;22.09;69.47;94984.72;1593986;89;20998;-59
2021/06/18 06:37:46;;;;;;;8.45;6.47;;;;;;;22.17;68.96;94988.52;1595316;89;20974;-58
2021/06/18 06:40:15;;;;;;;7.83;5.30;;;;;;;22.29;68.89;94989.23;1578775;88;22177;-60
2021/06/18 06:42:42;;;;;;;11.78;6.25;;;;;;;22.43;68.36;94987.52;1573987;88;21449;-58
2021/06/18 06:45:10;;;;;;;10.30;5.53;;;;;;;22.61;68.33;94981.30;1574633;87;21130;-59
2021/06/18 06:47:38;;;;;;;7.80;5.37;;;;;;;22.79;68.37;94973.65;1596201;87;21867;-59
2021/06/18 06:50:06;;;;;;;11.38;5.97;;;;;;;23.00;68.02;94978.22;1585557;88;21143;-59
2021/06/18 06:52:33;;;;;;;7.12;5.33;;;;;;;23.17;67.90;94969.80;1579243;87;22164;-59
2021/06/18 06:54:59;;;;;;;5.78;4.75;;;;;;;23.33;66.63;94970.30;1581271;88;21146;-59
2021/06/18 06:57:26;;;;;;;9.18;4.85;;;;;;;23.43;66.11;94968.66;1595279;88;21400;-57
2021/06/18 06:59:53;;;;;;;5.08;4.60;;;;;;;23.53;64.61;94971.91;1627688;86;21431;-56
2021/06/18 07:02:20;;;;;;;7.90;4.87;;;;;;;23.58;63.26;94969.02;1622080;86;21153;-60
2021/06/18 07:04:47;;;;;;;8.63;4.37;;;;;;;23.67;64.14;94969.31;1618202;86;21149;-61
2021/06/18 07:07:13;;;;;;;8.45;4.60;;;;;;;23.75;63.43;94963.24;1626889;87;21408;-62
2021/06/18 07:09:40;;;;;;;9.60;4.17;;;;;;;23.80;63.92;94965.22;1587862;88;21199;-59
2021/06/18 07:12:09;;;;;;;7.15;4.45;;;;;;;23.89;64.72;94967.69;1593117;87;21124;-57
2021/06/18 07:14:37;;;;;;;9.98;4.53;;;;;;;23.93;62.80;94964.70;1574165;88;21831;-62
2021/06/18 07:17:04;;;;;;;4.45;3.98;;;;;;;23.91;62.83;94979.94;1572972;88;21586;-57
2021/06/18 07:19:32;;;;;;;11.18;5.10;;;;;;;23.87;63.25;94975.27;1583984;88;21121;-58
2021/06/18 07:22:00;;;;;;;7.35;4.53;;;;;;;23.82;62.98;94979.50;1630531;85;21537;-59
2021/06/18 07:24:27;;;;;;;6.30;4.45;;;;;;;23.80;62.95;94979.27;1597340;87;21084;-59
2021/06/18 07:26:53;;;;;;;8.90;5.25;;;;;;;23.84;62.97;94969.92;1616130;87;21314;-58
2021/06/18 07:29:20;;;;;;;8.05;4.50;;;;;;;23.90;62.59;94974.86;1623856;86;21072;-58
2021/06/18 07:31:48;;;;;;;7.50;4.78;;;;;;;23.91;62.34;94963.07;1614280;86;21041;-57
2021/06/18 07:34:15;;;;;;;7.25;4.72;;;;;;;23.91;62.36;94963.73;1624470;86;21549;-59
2021/06/18 07:36:42;;;;;;;6.55;4.20;;;;;;;23.87;62.20;94967.45;1618243;85;21072;-57
2021/06/18 07:39:09;;;;;;;7.45;5.08;;;;;;;23.76;61.87;94964.10;1629642;86;21836;-57
2021/06/18 07:41:37;;;;;;;8.18;5.05;;;;;;;23.70;62.25;94962.00;1627244;85;21169;-61
2021/06/18 07:44:05;;;;;;;6.67;4.92;;;;;;;23.66;62.75;94967.16;1620369;86;21010;-57
2021/06/18 07:46:32;;;;;;;8.23;4.42;;;;;;;23.67;62.68;94965.88;1605390;86;21164;-58
2021/06/18 07:48:59;;;;;;;4.70;4.12;;;;;;;23.75;62.49;94959.02;1608527;85;21191;-59
2021/06/18 07:51:26;;;;;;;8.33;4.62;;;;;;;23.94;62.84;94961.27;1585980;86;22378;-56
2021/06/18 07:53:52;;;;;;;9.75;5.42;;;;;;;24.10;58.99;94957.61;1613606;86;21102;-57
2021/06/18 07:56:29;;;;;;;6.00;4.53;;;;;;;24.16;58.67;94954.70;1607253;86;21100;-58
2021/06/18 07:58:55;;;;;;;5.87;4.53;;;;;;;24.24;59.34;94961.27;1609920;86;21069;-58
2021/06/18 08:01:22;;;;;;;9.73;4.72;;;;;;;24.35;60.31;94957.66;1623918;86;21088;-60
2021/06/18 08:03:49;;;;;;;4.92;4.40;;;;;;;24.46;58.86;94955.33;1622587;85;21952;-57
2021/06/18 08:06:16;;;;;;;8.88;5.10;;;;;;;24.53;59.49;94965.36;1626657;86;21030;-60
2021/06/18 08:08:44;;;;;;;8.68;4.55;;;;;;;24.64;58.54;94960.22;1624950;86;21053;-58
2021/06/18 08:11:11;;;;;;;4.85;4.20;;;;;;;24.77;58.88;94953.25;1620986;86;21123;-57
2021/06/18 08:13:40;;;;;;;8.23;4.50;;;;;;;24.89;57.61;94956.00;1631486;86;21544;-59
2021/06/18 08:16:07;;;;;;;6.03;4.25;;;;;;;24.97;57.54;94956.91;1621965;86;21533;-59
2021/06/18 08:18:35;;;;;;;4.58;3.87;;;;;;;25.01;56.24;94953.13;1609379;87;21024;-58
2021/06/18 08:21:04;;;;;;;5.83;4.70;;;;;;;25.04;57.61;94952.83;1604309;86;21117;-59
2021/06/18 08:23:31;;;;;;;8.38;4.95;;;;;;;25.15;58.54;94959.66;1595331;87;21140;-57
2021/06/18 08:25:58;;;;;;;9.38;4.37;;;;;;;25.33;58.58;94962.36;1633658;85;21048;-57
2021/06/18 08:28:25;;;;;;;14.83;6.28;;;;;;;25.49;56.92;94957.09;1606566;87;21975;-58
2021/06/18 08:30:52;;;;;;;7.03;3.85;;;;;;;25.64;56.53;94965.13;1606934;87;21126;-57
2021/06/18 08:33:19;;;;;;;9.15;4.72;;;;;;;25.73;54.90;94957.66;1598072;87;21177;-57
2021/06/18 08:35:47;;;;;;;16.32;4.55;;;;;;;25.81;55.17;94950.73;1641138;86;21109;-60
2021/06/18 08:38:14;;;;;;;7.25;3.65;;;;;;;25.89;53.94;94945.31;1621570;86;21059;-61
2021/06/18 08:40:42;;;;;;;8.88;4.22;;;;;;;25.96;52.49;94941.86;1628740;86;21166;-58
2021/06/18 08:43:09;;;;;;;5.28;3.87;;;;;;;25.87;52.68;94948.58;1628708;86;21112;-60
2021/06/18 08:45:37;;;;;;;3.72;3.40;;;;;;;25.75;52.86;94959.92;1615453;87;21243;-58
2021/06/18 08:48:04;;;;;;;14.15;4.17;;;;;;;25.71;54.51;94956.67;1620159;85;21601;-58
2021/06/18 08:50:31;;;;;;;5.03;3.40;;;;;;;25.75;53.08;94953.66;1626118;86;21691;-57
2021/06/18 08:53:00;;;;;;;8.98;3.80;;;;;;;25.84;53.11;94948.23;1620639;86;21218;-60
2021/06/18 08:55:30;;;;;;;5.33;3.45;;;;;;;25.94;53.35;94957.16;1606868;87;21102;-63
2021/06/18 08:58:02;;;;;;;4.53;3.80;;;;;;;25.96;52.70;94948.91;1613226;87;21129;-62
2021/06/18 09:00:30;;;;;;;6.55;3.72;;;;;;;25.98;51.45;94942.07;1597429;86;21117;-62
2021/06/18 09:02:57;;;;;;;8.58;4.15;;;;;;;26.02;51.79;94934.03;1608691;87;21133;-60
2021/06/18 09:05:24;;;;;;;8.48;4.08;;;;;;;25.98;51.83;94931.53;1620174;86;21156;-61
2021/06/18 09:08:00;;;;;;;7.17;4.28;;;;;;;25.91;51.83;94934.91;1552798;89;21063;-62
2021/06/18 09:10:41;;;;;;;8.93;4.35;;;;;;;25.90;53.48;94934.80;1567690;89;21187;-63
2021/06/18 09:13:23;;;;;;;5.97;3.95;;;;;;;25.96;52.08;94939.78;1580765;89;21097;-63
2021/06/18 09:15:55;;;;;;;4.45;3.80;;;;;;;26.03;51.64;94933.50;1610493;86;21031;-65
2021/06/18 09:18:39;;;;;;;4.15;3.52;;;;;;;26.14;52.25;94936.08;1625203;86;21352;-62
2021/06/18 09:21:20;;;;;;;4.97;3.70;;;;;;;26.28;52.27;94950.28;1607309;86;21112;-61
2021/06/18 09:23:53;;;;;;;5.87;3.80;;;;;;;26.38;51.76;94947.13;1597513;87;22171;-57
2021/06/18 09:26:35;;;;;;;8.78;4.20;;;;;;;26.47;51.66;94946.66;1612312;86;21071;-58
2021/06/18 09:29:18;;;;;;;9.63;7.37;;;;;;;26.52;50.92;94941.57;1595260;87;21178;-59
2021/06/18 09:31:56;;;;;;;9.88;5.17;;;;;;;26.51;50.88;94939.31;1613302;85;21457;-59
2021/06/18 09:35:04;;;;;;;9.68;4.20;;;;;;;26.49;49.45;94936.28;1606005;86;21901;-57
2021/06/18 09:37:38;;;;;;;5.92;3.77;;;;;;;26.47;49.81;94928.32;1617776;86;21098;-58
2021/06/18 09:40:17;;;;;;;6.35;3.80;;;;;;;26.42;51.50;94936.27;1609105;87;21494;-59
2021/06/18 09:43:09;;;;;;;7.53;4.55;;;;;;;26.39;51.28;94934.53;1626652;86;21700;-58
2021/06/18 09:45:38;;;;;;;5.60;4.28;;;;;;;26.41;50.70;94934.75;1633207;86;22172;-60
2021/06/18 09:48:14;;;;;;;7.05;4.03;;;;;;;26.37;51.85;94932.91;1646202;85;21227;-57
2021/06/18 09:50:44;;;;;;;5.45;3.95;;;;;;;26.32;49.89;94932.36;1615102;86;21021;-58
2021/06/18 09:53:21;;;;;;;4.53;3.70;;;;;;;26.22;49.90;94937.59;1613844;86;21068;-59
2021/06/18 09:56:07;;;;;;;8.55;3.77;;;;;;;26.17;51.11;94935.02;1605524;86;21906;-58
2021/06/18 09:58:39;;;;;;;6.62;3.70;;;;;;;26.24;52.30;94929.34;1610332;86;21186;-56
2021/06/18 10:01:25;;;;;;;;;;;;;;;26.44;49.81;94933.65;1597109;88;21267;-57
2021/06/18 10:04:11;;;;;;;6.55;3.70;;;;;;;26.50;49.10;94930.08;1589643;86;20523;-62
2021/06/18 10:06:40;;;;;;;5.85;3.22;;;;;;;26.53;49.44;94920.51;1618326;87;21153;-56
2021/06/18 10:09:09;;;;;;;3.92;3.58;;;;;;;26.61;47.54;94936.89;1605925;87;21002;-58
2021/06/18 10:11:38;;;;;;;7.20;3.70;;;;;;;26.64;47.93;94937.88;1619506;87;21537;-58
2021/06/18 10:14:05;;;;;;;6.10;3.72;;;;;;;26.74;50.18;94926.20;1645284;85;21090;-58
2021/06/18 10:16:32;;;;;;;6.90;3.72;;;;;;;26.82;50.33;94932.04;1600493;87;21749;-59
2021/06/18 10:19:00;;;;;;;4.58;3.65;;;;;;;26.84;48.50;94926.59;1607966;88;21030;-58
2021/06/18 10:21:28;;;;;;;6.28;3.30;;;;;;;26.79;49.21;94920.44;1600653;87;21138;-57
2021/06/18 10:24:00;;;;;;;6.30;3.62;;;;;;;26.71;50.02;94919.58;1619202;86;21176;-61
2021/06/18 10:26:27;;;;;;;4.55;3.50;;;;;;;26.56;49.80;94919.44;1621560;86;21033;-57
2021/06/18 10:29:01;;;;;;;5.72;3.58;;;;;;;26.53;49.76;94923.33;1612879;87;21081;-57
2021/06/18 10:31:35;;;;;;;7.67;3.40;;;;;;;26.54;50.14;94912.17;1618077;87;21034;-60
2021/06/18 10:34:06;;;;;;;5.50;3.40;;;;;;;26.50;49.38;94924.43;1620351;86;22344;-59
2021/06/18 10:36:34;;;;;;;5.85;3.42;;;;;;;26.39;50.65;94920.43;1570789;89;21150;-57
2021/06/18 10:39:15;;;;;;;7.15;3.70;;;;;;;26.38;49.35;94924.56;1578103;89;21583;-57
2021/06/18 10:41:54;;;;;;;3.80;3.05;;;;;;;26.54;49.68;94926.28;1565187;90;21165;-57
2021/06/18 10:44:44;;;;;;;4.92;2.80;;;;;;;26.88;51.18;94916.38;1564334;89;21687;-57
2021/06/18 10:47:36;;;;;;;8.70;3.43;;;;;;;27.21;48.80;94929.06;1613692;87;21007;-58
2021/06/18 10:50:04;;;;;;;8.10;4.30;;;;;;;27.32;49.81;94931.62;1621213;86;21860;-59
2021/06/18 10:52:38;;;;;;;4.15;3.30;;;;;;;27.62;48.20;94929.02;1608371;87;20961;-58
2021/06/18 10:55:06;;;;;;;7.92;3.25;;;;;;;27.72;44.49;94921.59;1605528;87;21047;-56
2021/06/18 10:57:33;;;;;;;8.43;3.05;;;;;;;27.50;45.47;94931.28;1605408;87;21211;-58
2021/06/18 11:00:20;;;;;;;10.45;3.52;;;;;;;27.33;45.48;94916.81;1629760;86;21041;-57
2021/06/18 11:02:47;;;;;;;3.02;2.72;;;;;;;27.38;47.61;94915.27;1595016;86;21112;-58
2021/06/18 11:05:32;;;;;;;3.30;3.00;;;;;;;27.54;47.06;94918.31;1606817;87;21186;-58
2021/06/18 11:08:26;;;;;;;5.20;3.35;;;;;;;27.42;46.87;94907.19;1608514;87;21046;-59
2021/06/18 11:10:58;;;;;;;5.70;3.50;;;;;;;27.48;47.19;94907.05;1579640;88;21045;-61
2021/06/18 11:13:23;;;;;;;4.05;3.45;;;;;;;27.44;46.84;94909.47;1581735;89;21078;-57
2021/06/18 11:15:49;;;;;;;5.28;4.03;;;;;;;27.47;48.09;94903.48;1566217;88;21223;-61
2021/06/18 11:18:19;;;;;;;3.83;3.33;;;;;;;27.73;47.00;94900.48;1576600;89;21105;-60
2021/06/18 11:20:50;;;;;;;8.05;4.00;;;;;;;28.15;45.30;94906.09;1580295;89;21089;-62
2021/06/18 11:23:23;;;;;;;8.63;3.20;;;;;;;28.56;45.57;94902.43;1546682;89;21067;-58
2021/06/18 11:26:06;;;;;;;5.25;3.87;;;;;;;29.04;45.00;94897.84;1573707;88;21109;-58
2021/06/18 11:28:40;;;;;;;4.60;3.65;;;;;;;29.12;44.30;94892.96;1573934;90;21142;-59
2021/06/18 11:31:40;;;;;;;8.03;4.10;;;;;;;28.88;44.06;94898.46;1611254;86;21254;-59
2021/06/18 11:34:07;;;;;;;9.68;3.60;;;;;;;28.51;43.71;94909.67;1601855;87;21002;-58
2021/06/18 11:36:39;;;;;;;8.70;2.92;;;;;;;28.25;43.85;94918.41;1591473;88;21098;-59
2021/06/18 11:39:15;;;;;;;13.55;3.40;;;;;;;28.36;44.28;94906.80;1606569;87;21160;-58
2021/06/18 11:41:44;;;;;;;4.80;3.00;;;;;;;28.85;44.84;94892.52;1629154;86;22383;-63
2021/06/18 11:44:12;;;;;;;4.80;3.42;;;;;;;29.49;41.79;94895.08;1632197;86;21093;-60